Sheridan, WY

1:35 PM MDT on September 23, 2014 (GMT -0600)
North Airport Area | Change Station
CLOSE
Current Station
Personal Weather Station
Location: Sheridan, WY
Elevation: 3917 ft
Nearby Weather Stations

Elev 3917 ft 44.78 °N, 106.97 °W | Updated 9 minutes ago

Clear
Clear
80.8 °F
Feels Like 80 °F
N
7.3
Wind Variable Wind from NNW

Today
High -- | Low -- °F
--% Chance of Precip.
Yesterday
High -- | Low -- °F
Precip. -- in
6:56 AM 7:03 PM
Waning Crescent, 0% visible
Pressure 29.93 in
Visibility 10.0 miles
Clouds Clear
Heat Index 80 °F
Dew Point 51 °F
Humidity 35%
Rainfall 0.00 in
Snow Depth 0 in , 0 in , 0 in
UV 7 out of 12
Pollen 5.00 out of 12
Air Quality Not available.
Flu Activity Not available.
METAR KSHR 231853Z AUTO 32017KT 10SM CLR 27/08 A3002 RMK AO2 SLP134 T02670083

More Conditions Fewer Conditions

Pressure 29.93 in
Visibility 10.0 miles
Clouds Clear
Heat Index 80 °F
Dew Point 51 °F
Humidity 35%
Rainfall 0.00 in
Snow Depth 0 in , 0 in , 0 in
UV 7 out of 12
Pollen 5.00 out of 12
Air Quality Not available.
Flu Activity Not available.
METAR KSHR 231853Z AUTO 32017KT 10SM CLR 27/08 A3002 RMK AO2 SLP134 T02670083

More Conditions Fewer Conditions

10-Day Weather Forecast

Almanac

Astronomy

Sep. 23, 2014 Rise Set
Actual Time 6:56 AM MDT 7:03 PM MDT
Civil Twilight 6:27 AM MDT 7:32 PM MDT
Nautical Twilight 5:52 AM MDT 8:06 PM MDT
Astronomical Twilight 5:17 AM MDT 8:41 PM MDT
Moon 6:22 AM MDT 6:42 PM MDT
Length of Visible Light 13h 05m
Length of Day
12h 07m
Tomorrow will be 3m 5s shorter.
Waning Crescent, 0% of the Moon is Illuminated
Today
Waning Crescent
Sep 24
New
Oct 1
First Quarter
Oct 8
Full
Oct 15
Last Quarter

Today's Extremes

State Highs State Lows

Community

WunderPhotos

Upload Photos

1,755,782 photos uploaded!

WunderBlogs® & News

Nearby

Snow Depth

Station Depth Elevation
Phillips Bench 0 in 8200 ft
Gros Ventre Summit 0 in 8750 ft
Reno Hill 0 in 8500 ft
Blind Bull Summit 0 in 8900 ft
Sand Lake 0 in 10050 ft

Earthquake Activity

City Distance Mag. Time & Date
No recent earthquake activity has been reported nearby.
Minimum magnitude displayed is 2.5.

Coastal Water Temperatures

Place Temperature
No Stations Reporting

Nearby Weather Stations